createdAt,value
2019-02-22T00:02:17.823Z,98019.32
2019-02-22T00:07:35.120Z,98015.57
2019-02-22T00:12:53.308Z,98026.30
2019-02-22T00:18:10.655Z,98019.05
2019-02-22T00:23:29.006Z,98008.06
2019-02-22T00:28:46.496Z,98018.45
2019-02-22T00:34:05.272Z,98003.94
2019-02-22T00:39:22.973Z,97999.45
2019-02-22T00:44:40.948Z,97996.47
2019-02-22T00:49:59.121Z,98015.22
2019-02-22T00:55:16.400Z,98007.05
2019-02-22T01:00:33.787Z,97999.90
2019-02-22T01:05:51.596Z,98009.22
2019-02-22T01:11:09.562Z,98007.00
2019-02-22T01:16:27.388Z,98006.00
2019-02-22T01:21:44.676Z,97999.44
2019-02-22T01:27:01.926Z,97981.41
2019-02-22T01:32:19.756Z,97965.33
2019-02-22T01:37:37.188Z,97968.31
2019-02-22T01:42:54.810Z,97961.95
2019-02-22T01:48:12.681Z,97971.58
2019-02-22T01:53:31.093Z,97963.55
2019-02-22T01:58:49.141Z,97952.88
2019-02-22T02:04:06.431Z,97954.76
2019-02-22T02:09:24.038Z,97946.06
2019-02-22T02:14:42.317Z,97938.91
2019-02-22T02:19:59.810Z,97945.48
2019-02-22T02:25:17.237Z,97952.91
2019-02-22T02:30:34.512Z,97949.19
2019-02-22T02:35:52.338Z,97957.02
2019-02-22T02:41:11.552Z,97919.83
2019-02-22T02:46:28.281Z,97906.91
2019-02-22T02:51:45.838Z,97913.02
2019-02-22T02:57:03.315Z,97909.56
2019-02-22T03:02:26.331Z,97906.95
2019-02-22T03:07:45.659Z,97900.11
2019-02-22T03:13:03.500Z,97893.43
2019-02-22T03:18:21.027Z,97892.34
2019-02-22T03:23:38.722Z,97894.21
2019-02-22T03:28:56.215Z,97897.68
2019-02-22T03:34:13.578Z,97890.00
2019-02-22T03:39:31.953Z,97886.80
2019-02-22T03:44:49.693Z,97896.39
2019-02-22T03:50:07.160Z,97886.80
2019-02-22T03:55:24.423Z,97896.72
2019-02-22T04:00:41.638Z,97908.81
2019-02-22T04:05:59.618Z,97898.53
2019-02-22T04:11:18.035Z,97903.98
2019-02-22T04:16:36.629Z,97909.19
2019-02-22T04:21:54.108Z,97909.91
2019-02-22T04:27:11.465Z,97905.53
2019-02-22T04:32:29.075Z,97909.68
2019-02-22T04:37:46.530Z,97907.78
2019-02-22T04:43:04.105Z,97913.70
2019-02-22T04:48:22.242Z,97925.77
2019-02-22T04:53:39.976Z,97917.50
2019-02-22T04:58:57.281Z,97927.77
2019-02-22T05:04:15.272Z,97935.94
2019-02-22T05:09:32.857Z,97938.89
2019-02-22T05:14:50.783Z,97930.49
2019-02-22T05:20:09.753Z,97936.88
2019-02-22T05:30:46.147Z,97945.53
2019-02-22T05:36:10.302Z,97944.70
2019-02-22T05:41:27.634Z,97937.38
2019-02-22T05:47:00.486Z,97950.28
2019-02-22T05:52:11.042Z,97929.77
2019-02-22T05:57:28.420Z,97940.67
2019-02-22T06:02:45.557Z,97945.19
2019-02-22T06:08:04.182Z,97946.72
2019-02-22T06:13:21.519Z,97946.72
2019-02-22T06:18:39.076Z,97952.40
2019-02-22T06:23:57.645Z,97948.83
2019-02-22T06:29:15.200Z,97954.86
2019-02-22T06:34:32.331Z,97954.62
2019-02-22T06:39:50.456Z,97949.67
2019-02-22T06:45:08.246Z,97965.53
2019-02-22T06:50:33.860Z,97968.24
2019-02-22T06:55:44.433Z,97979.50
2019-02-22T07:01:02.799Z,97976.67
2019-02-22T07:06:21.151Z,97976.30
2019-02-22T07:11:44.403Z,97990.29
2019-02-22T07:17:02.894Z,97988.03
2019-02-22T07:22:20.290Z,97998.80
2019-02-22T07:27:38.186Z,98017.38
2019-02-22T07:32:56.905Z,98029.23
2019-02-22T07:38:14.720Z,98032.20
2019-02-22T07:43:33.087Z,98033.63
2019-02-22T07:48:51.353Z,98045.69
2019-02-22T07:54:08.986Z,98037.41
2019-02-22T07:59:26.388Z,98061.56
2019-02-22T08:04:44.190Z,98069.38
2019-02-22T08:10:02.621Z,98076.83
2019-02-22T08:15:20.723Z,98069.27
2019-02-22T08:20:38.851Z,98085.27
2019-02-22T08:25:56.200Z,98078.30
2019-02-22T08:31:14.011Z,98101.48
2019-02-22T08:36:32.100Z,98105.99
2019-02-22T08:41:49.708Z,98112.51
2019-02-22T08:47:07.116Z,98111.67
2019-02-22T08:52:24.427Z,98108.14
2019-02-22T08:57:41.858Z,98117.14
2019-02-22T09:03:00.796Z,98117.13
2019-02-22T09:08:18.108Z,98124.13
2019-02-22T09:13:43.075Z,98147.70
2019-02-22T09:18:53.912Z,98154.47
2019-02-22T09:24:11.639Z,98163.46
2019-02-22T09:29:29.568Z,98167.27
2019-02-22T09:34:48.399Z,98181.01
2019-02-22T09:40:06.596Z,98189.89
2019-02-22T09:45:26.203Z,98198.44
2019-02-22T09:50:43.756Z,98203.42
2019-02-22T09:56:01.599Z,98211.00
2019-02-22T10:01:19.546Z,98222.00
2019-02-22T10:06:37.050Z,98228.66
2019-02-22T10:11:55.189Z,98240.50
2019-02-22T10:17:12.867Z,98249.06
2019-02-22T10:22:30.317Z,98252.83
2019-02-22T10:27:48.029Z,98252.83
2019-02-22T10:33:06.261Z,98264.42
2019-02-22T10:38:24.146Z,98262.80
2019-02-22T10:43:41.623Z,98271.80
2019-02-22T10:49:00.611Z,98274.46
2019-02-22T10:54:18.751Z,98262.93
2019-02-22T10:59:36.636Z,98276.00
2019-02-22T11:04:54.303Z,98283.47
2019-02-22T11:10:12.888Z,98281.81
2019-02-22T11:15:30.496Z,98281.98
2019-02-22T11:20:48.781Z,98281.03
2019-02-22T11:26:06.359Z,98300.38
2019-02-22T11:31:24.945Z,98315.20
2019-02-22T11:36:43.838Z,98317.70
2019-02-22T11:42:02.342Z,98323.81
2019-02-22T11:47:21.622Z,98323.50
2019-02-22T11:52:39.842Z,98330.17
2019-02-22T11:57:58.214Z,98325.17
2019-02-22T12:03:24.355Z,98344.89
2019-02-22T12:08:33.568Z,98368.40
2019-02-22T12:13:51.278Z,98368.34
2019-02-22T12:19:10.550Z,98364.44
2019-02-22T12:24:28.136Z,98388.23
2019-02-22T12:29:46.439Z,98380.26
2019-02-22T12:35:06.245Z,98387.41
2019-02-22T12:40:25.084Z,98394.03
2019-02-22T12:45:43.534Z,98391.23
2019-02-22T12:51:01.714Z,98396.36
2019-02-22T12:56:22.903Z,98404.95
2019-02-22T13:01:38.865Z,98407.44
2019-02-22T13:06:56.598Z,98407.97
2019-02-22T13:12:17.444Z,98412.39
2019-02-22T13:17:34.179Z,98426.99
2019-02-22T13:22:52.830Z,98434.59
2019-02-22T13:28:10.892Z,98442.37
2019-02-22T13:33:29.160Z,98448.48
2019-02-22T13:38:47.611Z,98461.50
2019-02-22T13:44:06.428Z,98487.63
2019-02-22T13:49:24.417Z,98505.02
2019-02-22T13:54:44.499Z,98506.84
2019-02-22T14:00:03.552Z,98520.98
2019-02-22T14:05:21.419Z,98527.71
2019-02-22T14:10:40.813Z,98532.13
2019-02-22T14:15:59.724Z,98543.25
2019-02-22T14:21:18.058Z,98553.19
2019-02-22T14:26:36.012Z,98556.67
2019-02-22T14:31:54.219Z,98564.66
2019-02-22T14:37:13.356Z,98576.00
2019-02-22T14:42:31.889Z,98585.46
2019-02-22T14:47:53.132Z,98582.69
2019-02-22T14:53:19.061Z,98599.42
2019-02-22T14:59:00.272Z,98605.05
2019-02-22T15:04:16.600Z,98621.68
2019-02-22T15:09:35.617Z,98637.25
2019-02-22T15:14:53.228Z,98638.61
2019-02-22T15:20:11.343Z,98654.44
2019-02-22T15:25:29.619Z,98660.09
2019-02-22T15:30:48.615Z,98676.14
2019-02-22T15:36:07.509Z,98680.60
2019-02-22T15:41:25.516Z,98691.96
2019-02-22T15:46:42.997Z,98707.61
2019-02-22T15:52:01.059Z,98716.56
2019-02-22T15:57:19.092Z,98734.00
2019-02-22T16:02:37.098Z,98749.14
2019-02-22T16:07:55.047Z,98756.84
2019-02-22T16:13:16.667Z,98769.46
2019-02-22T16:18:37.103Z,98773.70
2019-02-22T16:24:08.613Z,98771.02
2019-02-22T16:29:30.592Z,98801.86
2019-02-22T16:34:55.543Z,98820.08
2019-02-22T16:40:12.889Z,98828.70
2019-02-22T16:45:31.178Z,98843.98
2019-02-22T16:50:59.392Z,98854.98
2019-02-22T16:56:17.367Z,98863.56
2019-02-22T17:01:35.076Z,98876.48
2019-02-22T17:06:56.448Z,98892.88
2019-02-22T17:12:15.977Z,98916.80
2019-02-22T17:17:35.519Z,98930.58
2019-02-22T17:22:56.303Z,98937.14
2019-02-22T17:28:13.243Z,98954.27
2019-02-22T17:33:33.081Z,98957.45
2019-02-22T17:38:54.936Z,98971.08
2019-02-22T17:44:12.823Z,98972.78
2019-02-22T17:49:31.547Z,98982.86
2019-02-22T17:54:49.293Z,98992.02
2019-02-22T18:00:07.953Z,99002.87
2019-02-22T18:05:25.926Z,99020.06
2019-02-22T18:10:43.639Z,99024.98
2019-02-22T18:16:04.588Z,99025.45
2019-02-22T18:21:23.522Z,99041.69
2019-02-22T18:26:42.187Z,99049.81
2019-02-22T18:31:59.879Z,99060.03
2019-02-22T18:37:18.217Z,99073.91
2019-02-22T18:42:36.069Z,99078.64
2019-02-22T18:47:56.267Z,99080.63
2019-02-22T18:53:14.926Z,99098.57
2019-02-22T18:58:32.940Z,99097.31
2019-02-22T19:03:51.898Z,99113.31
2019-02-22T19:09:10.961Z,99115.72
2019-02-22T19:14:28.907Z,99130.88
2019-02-22T19:19:47.102Z,99141.69
2019-02-22T19:25:04.719Z,99152.78
2019-02-22T19:30:22.879Z,99166.09
2019-02-22T19:35:40.805Z,99184.91
2019-02-22T19:40:59.327Z,99198.59
2019-02-22T19:46:18.669Z,99204.42
2019-02-22T19:51:36.294Z,99218.09
2019-02-22T19:56:55.445Z,99230.27
2019-02-22T20:02:14.391Z,99236.41
2019-02-22T20:07:32.920Z,99242.81
2019-02-22T20:12:51.138Z,99258.95
2019-02-22T20:18:10.654Z,99261.63
2019-02-22T20:23:28.475Z,99278.63
2019-02-22T20:28:47.527Z,99281.73
2019-02-22T20:34:05.048Z,99288.63
2019-02-22T20:39:23.377Z,99297.68
2019-02-22T20:44:41.906Z,99301.76
2019-02-22T20:49:59.783Z,99302.56
2019-02-22T20:55:17.915Z,99311.62
2019-02-22T21:00:37.176Z,99314.55
2019-02-22T21:05:55.016Z,99328.67
2019-02-22T21:11:13.258Z,99346.19
2019-02-22T21:16:31.989Z,99351.53
2019-02-22T21:21:49.797Z,99353.06
2019-02-22T21:27:08.467Z,99364.66
2019-02-22T21:32:25.984Z,99375.87
2019-02-22T21:37:44.211Z,99383.73
2019-02-22T21:43:01.650Z,99379.66
2019-02-22T21:48:27.187Z,99391.64
2019-02-22T21:53:37.718Z,99395.38
2019-02-22T21:58:55.200Z,99396.61
2019-02-22T22:04:13.586Z,99396.00
2019-02-22T22:09:31.559Z,99406.23
2019-02-22T22:14:49.650Z,99406.16
2019-02-22T22:20:07.429Z,99406.66
2019-02-22T22:25:24.793Z,99413.52
2019-02-22T22:30:42.992Z,99409.50
2019-02-22T22:36:00.829Z,99411.51
2019-02-22T22:41:18.969Z,99423.23
2019-02-22T22:46:37.404Z,99434.52
2019-02-22T22:51:56.853Z,99439.50
2019-02-22T22:57:15.823Z,99434.47
2019-02-22T23:02:36.432Z,99438.59
2019-02-22T23:07:56.353Z,99431.02
2019-02-22T23:13:13.707Z,99429.92
2019-02-22T23:18:31.069Z,99428.44
2019-02-22T23:23:49.150Z,99425.90
2019-02-22T23:29:07.223Z,99439.59
2019-02-22T23:34:25.363Z,99440.27
2019-02-22T23:39:43.489Z,99446.93
2019-02-22T23:45:01.467Z,99457.72
2019-02-22T23:50:19.208Z,99462.96
2019-02-22T23:55:37.325Z,99466.36
